createdAt,value
2022-07-29T00:00:01.645Z,8191.05
2022-07-29T00:05:01.652Z,4402.713
2022-07-29T00:10:01.634Z,573.69
2022-07-29T00:15:01.661Z,591.184
2022-07-29T00:20:01.711Z,555.76
2022-07-29T00:25:02.267Z,588.99
2022-07-29T00:30:01.702Z,599.25
2022-07-29T00:35:01.666Z,707.431
2022-07-29T00:40:01.665Z,699.4250000000001
2022-07-29T00:45:01.684Z,715.139
2022-07-29T00:50:01.710Z,602.188
2022-07-29T00:55:06.442Z,601.807
2022-07-29T01:00:01.902Z,591.85
2022-07-29T01:05:01.888Z,7613.903
2022-07-29T01:10:01.742Z,8065.428
2022-07-29T01:15:01.720Z,8124.191
2022-07-29T01:20:01.732Z,7885.836
2022-07-29T01:25:01.846Z,7031.627
2022-07-29T01:30:01.763Z,6360.1
2022-07-29T01:35:01.718Z,5752.231
2022-07-29T01:40:01.768Z,5210.54
2022-07-29T01:45:01.764Z,4726.9490000000005
2022-07-29T01:50:02.181Z,4290.14
2022-07-29T01:55:01.886Z,4063.975
2022-07-29T02:00:01.765Z,2430.2690000000002
2022-07-29T02:05:01.827Z,700.98
2022-07-29T02:10:01.711Z,707.335
2022-07-29T02:15:01.775Z,645.238
2022-07-29T02:20:01.804Z,605.573
2022-07-29T02:25:02.027Z,602.987
2022-07-29T02:30:01.971Z,603.601
2022-07-29T02:35:01.767Z,615.973
2022-07-29T02:40:01.827Z,613.085
2022-07-29T02:45:01.829Z,741.058
2022-07-29T02:50:01.819Z,694.394
2022-07-29T02:55:01.919Z,717.615
2022-07-29T03:00:01.928Z,603.61
2022-07-29T03:05:01.913Z,608.335
2022-07-29T03:10:01.913Z,567.981
2022-07-29T03:15:01.820Z,574.999
2022-07-29T03:20:01.839Z,576.3580000000001
2022-07-29T03:25:01.833Z,593.744
2022-07-29T03:30:01.994Z,708.86
2022-07-29T03:35:01.831Z,666.836
2022-07-29T03:40:02.169Z,688.815
2022-07-29T03:45:01.828Z,556.79
2022-07-29T03:50:01.835Z,604.2760000000001
2022-07-29T03:55:01.803Z,585.856
2022-07-29T04:00:01.891Z,601.947
2022-07-29T04:05:01.966Z,1392.461
2022-07-29T04:10:01.835Z,2755.471
2022-07-29T04:15:01.863Z,2967.098
2022-07-29T04:20:01.904Z,3311.135
2022-07-29T04:25:04.094Z,2173.806
2022-07-29T04:30:01.908Z,553.607
2022-07-29T04:35:02.121Z,585.033
2022-07-29T04:40:02.036Z,556.556
2022-07-29T04:45:01.892Z,583.381
2022-07-29T04:50:01.915Z,586.566
2022-07-29T04:55:01.893Z,690.201
2022-07-29T05:00:01.918Z,706.15
2022-07-29T05:05:01.972Z,705.735
2022-07-29T05:10:02.312Z,681.163
2022-07-29T05:15:01.902Z,586.101
2022-07-29T05:20:01.905Z,620.207
2022-07-29T05:25:05.623Z,589.474
2022-07-29T05:30:01.991Z,618.408
2022-07-29T05:35:02.024Z,586.407
2022-07-29T05:40:02.064Z,765.1460000000001
2022-07-29T05:45:03.818Z,728.865
2022-07-29T05:50:01.957Z,1462.521
2022-07-29T05:55:02.714Z,1088.268
2022-07-29T06:00:01.957Z,649
2022-07-29T06:05:02.042Z,637.712
2022-07-29T06:10:02.105Z,663.182
2022-07-29T06:15:01.967Z,696.3530000000001
2022-07-29T06:20:01.984Z,754.481
2022-07-29T06:25:02.006Z,808.787
2022-07-29T06:30:02.030Z,792.815
2022-07-29T06:35:24.734Z,833.937
2022-07-29T06:40:02.215Z,793.155
2022-07-29T06:45:04.987Z,3420.5
2022-07-29T06:50:01.968Z,3233.111
2022-07-29T06:55:02.002Z,801.248
2022-07-29T07:00:02.012Z,1538.826
2022-07-29T07:05:02.124Z,2552.321
2022-07-29T07:10:02.233Z,1111.171
2022-07-29T07:15:02.016Z,3587.274
2022-07-29T07:20:02.041Z,2526.393
2022-07-29T07:25:06.978Z,642.965
2022-07-29T07:30:02.054Z,578.51
2022-07-29T07:35:02.267Z,767.816
2022-07-29T07:40:02.255Z,440.22700000000003
2022-07-29T07:45:13.349Z,1334.436
2022-07-29T07:50:02.102Z,1143.1680000000001
2022-07-29T07:55:02.167Z,898.755
2022-07-29T08:00:02.173Z,590.665
2022-07-29T08:05:02.085Z,823.976
2022-07-29T08:10:02.065Z,871.003
2022-07-29T08:15:02.139Z,429.874
2022-07-29T08:20:02.070Z,567.518
2022-07-29T08:25:02.241Z,1072.04
2022-07-29T08:30:02.212Z,630.224
2022-07-29T08:35:02.160Z,451.95300000000003
2022-07-29T08:40:02.145Z,784.4060000000001
2022-07-29T08:45:02.117Z,780.619
2022-07-29T08:50:02.233Z,322.54900000000004
2022-07-29T08:55:02.586Z,511.13800000000003
2022-07-29T09:00:06.290Z,754.564
2022-07-29T09:05:02.157Z,483.434
2022-07-29T09:10:02.136Z,298.276
2022-07-29T09:15:02.593Z,705.124
2022-07-29T09:20:02.379Z,850.214
2022-07-29T09:25:02.149Z,578.905
2022-07-29T09:30:02.181Z,448.327
2022-07-29T09:35:02.498Z,740.45
2022-07-29T09:40:02.266Z,682.164
2022-07-29T09:45:02.514Z,295.16
2022-07-29T09:50:02.147Z,1400.848
2022-07-29T09:55:08.107Z,1398.46
2022-07-29T10:00:02.201Z,1407.266
2022-07-29T10:05:02.259Z,1094.487
2022-07-29T10:10:02.412Z,785.0260000000001
2022-07-29T10:15:02.244Z,785.729
2022-07-29T10:20:02.263Z,722.674
2022-07-29T10:25:02.225Z,3137.493
2022-07-29T10:30:02.299Z,3316.59
2022-07-29T10:35:02.274Z,2603.0080000000003
2022-07-29T10:40:02.208Z,1184.583
2022-07-29T10:45:02.677Z,1376.054
2022-07-29T10:50:02.258Z,1430.3310000000001
2022-07-29T10:55:02.374Z,1470.729
2022-07-29T11:00:02.258Z,1468.211
2022-07-29T11:05:02.184Z,1439.546
2022-07-29T11:10:02.291Z,1947.247
2022-07-29T11:15:02.451Z,3518.065
2022-07-29T11:20:02.322Z,4344.51
2022-07-29T11:25:02.283Z,1553.632
2022-07-29T11:30:02.251Z,1623.097
2022-07-29T11:35:02.346Z,1661.81
2022-07-29T11:40:02.522Z,1648.865
2022-07-29T11:45:04.224Z,1577.241
2022-07-29T11:50:02.250Z,2019.409
2022-07-29T11:55:09.724Z,3843.369
2022-07-29T12:00:09.370Z,2475.925
2022-07-29T12:05:02.263Z,1377.54
2022-07-29T12:25:30.224Z,1511.0710000000001
2022-07-29T12:30:02.383Z,1094.459
2022-07-29T12:35:02.501Z,1107.864
2022-07-29T12:40:02.315Z,1094.2
2022-07-29T12:45:02.326Z,1074.546
2022-07-29T12:50:02.325Z,1042.794
2022-07-29T12:55:02.414Z,761.3050000000001
2022-07-29T13:00:02.320Z,1291.108
2022-07-29T13:05:02.312Z,2715.976
2022-07-29T13:10:02.441Z,2937.552
2022-07-29T13:15:02.325Z,3787.585
2022-07-29T13:20:02.386Z,2059.735
2022-07-29T13:25:02.368Z,543.049
2022-07-29T13:30:02.500Z,502.318
2022-07-29T13:35:05.210Z,417.05
2022-07-29T13:40:02.333Z,514.756
2022-07-29T13:45:02.439Z,471.446
2022-07-29T13:50:02.384Z,1445.305
2022-07-29T13:55:02.407Z,2630.281
2022-07-29T14:00:02.390Z,2588.5
2022-07-29T14:05:06.292Z,1713.875
2022-07-29T14:10:02.468Z,424.482
2022-07-29T14:15:02.465Z,362.56100000000004
2022-07-29T14:20:02.378Z,349.023
2022-07-29T14:25:05.658Z,496.795
2022-07-29T14:30:02.440Z,471.455
2022-07-29T14:35:02.398Z,520.465
2022-07-29T14:40:02.425Z,479.471
2022-07-29T14:45:02.583Z,281.094
2022-07-29T14:50:02.472Z,257.206
2022-07-29T14:55:02.432Z,203.121
2022-07-29T15:00:02.431Z,185.391
2022-07-29T15:05:02.644Z,162.04
2022-07-29T15:10:02.544Z,223.228
2022-07-29T15:15:03.420Z,278.757
2022-07-29T15:20:02.468Z,280.325
2022-07-29T15:25:02.619Z,290.451
2022-07-29T15:30:02.466Z,196.935
2022-07-29T15:35:02.466Z,197.174
2022-07-29T15:40:02.595Z,188.66
2022-07-29T15:45:02.653Z,185.274
2022-07-29T15:50:02.498Z,183.25
2022-07-29T15:55:02.519Z,235.524
2022-07-29T16:00:02.664Z,299.359
2022-07-29T16:05:02.677Z,991.354
2022-07-29T16:10:02.568Z,3095.947
2022-07-29T16:15:06.345Z,2177.327
2022-07-29T16:20:02.578Z,155.793
2022-07-29T16:25:02.661Z,155.34
2022-07-29T16:30:02.545Z,155.038
2022-07-29T16:35:02.890Z,164.979
2022-07-29T16:40:02.630Z,246.78300000000002
2022-07-29T16:45:02.808Z,308.463
2022-07-29T16:50:02.520Z,302.755
2022-07-29T16:55:02.559Z,256.911
2022-07-29T17:00:02.788Z,178.66400000000002
2022-07-29T17:05:02.891Z,210.43
2022-07-29T17:10:04.055Z,196.907
2022-07-29T17:15:02.504Z,176.141
2022-07-29T17:20:02.543Z,174.881
2022-07-29T17:25:02.711Z,263.94
2022-07-29T17:30:02.643Z,280.068
2022-07-29T17:35:02.538Z,260.137
2022-07-29T17:40:02.547Z,203.397
2022-07-29T17:45:02.738Z,152.29500000000002
2022-07-29T17:50:02.955Z,183.208
2022-07-29T17:55:02.663Z,185.77100000000002
2022-07-29T18:00:02.578Z,188.042
2022-07-29T18:05:02.648Z,181.453
2022-07-29T18:10:02.784Z,286.31600000000003
2022-07-29T18:15:02.587Z,290.982
2022-07-29T18:20:02.598Z,285.418
2022-07-29T18:25:02.639Z,226.809
2022-07-29T18:30:03.513Z,175.047
2022-07-29T18:35:02.739Z,174.72
2022-07-29T18:40:02.635Z,156.144
2022-07-29T18:45:02.602Z,151.247
2022-07-29T18:50:02.660Z,151.159
2022-07-29T18:55:02.771Z,275.034
2022-07-29T19:00:02.855Z,265.434
2022-07-29T19:05:02.609Z,260.187
2022-07-29T19:10:02.637Z,200.59900000000002
2022-07-29T19:15:02.629Z,185.329
2022-07-29T19:20:02.984Z,186.86
2022-07-29T19:25:02.848Z,182.06
2022-07-29T19:30:02.727Z,175.617
2022-07-29T19:35:02.660Z,200.142
2022-07-29T19:40:02.839Z,294.64300000000003
2022-07-29T19:45:02.928Z,286.259
2022-07-29T19:50:02.692Z,281.31600000000003
2022-07-29T19:55:07.295Z,185.874
2022-07-29T20:00:02.758Z,171.846
2022-07-29T20:05:02.687Z,170.572
2022-07-29T20:10:02.784Z,148.522
2022-07-29T20:15:02.678Z,148.565
2022-07-29T20:20:02.674Z,190.52700000000002
2022-07-29T20:25:02.763Z,268.779
2022-07-29T20:30:02.755Z,266.25600000000003
2022-07-29T20:35:02.920Z,324.596
2022-07-29T20:40:02.976Z,261.332
2022-07-29T20:45:06.843Z,222.606
2022-07-29T20:50:02.744Z,219.98600000000002
2022-07-29T20:55:02.743Z,217.505
2022-07-29T21:00:02.862Z,250.514
2022-07-29T21:05:02.887Z,233.757
2022-07-29T21:10:02.736Z,296.05
2022-07-29T21:15:02.793Z,286.603
2022-07-29T21:20:02.761Z,281.675
2022-07-29T21:25:02.785Z,236.61100000000002
2022-07-29T21:30:07.786Z,163.119
2022-07-29T21:35:02.731Z,149.329
2022-07-29T21:40:02.793Z,149.98
2022-07-29T21:45:02.845Z,150.13
2022-07-29T21:50:02.785Z,150.06300000000002
2022-07-29T21:55:02.950Z,236.256
2022-07-29T22:00:03.258Z,302.683
2022-07-29T22:05:02.817Z,298.729
2022-07-29T22:10:02.820Z,275.902
2022-07-29T22:15:02.790Z,177.251
2022-07-29T22:20:02.848Z,175.936
2022-07-29T22:25:02.973Z,175.068
2022-07-29T22:30:02.817Z,174.387
2022-07-29T22:35:02.806Z,173.769
2022-07-29T22:40:02.868Z,231.059
2022-07-29T22:45:02.816Z,290.317
2022-07-29T22:50:03.010Z,263.3
2022-07-29T22:55:03.188Z,253.321
2022-07-29T23:00:02.891Z,150.63400000000001
2022-07-29T23:05:02.849Z,150.29
2022-07-29T23:10:02.874Z,149.94400000000002
2022-07-29T23:15:02.951Z,150.186
2022-07-29T23:20:02.857Z,155.052
2022-07-29T23:25:02.888Z,237.344
2022-07-29T23:30:02.880Z,299.13800000000003
2022-07-29T23:35:02.957Z,297.878
2022-07-29T23:40:02.909Z,266.363
2022-07-29T23:45:03.011Z,179.284
2022-07-29T23:50:03.053Z,176.28900000000002
2022-07-29T23:55:36.011Z,191.463
